sensor_id;sensor_type;location;lat;lon;timestamp;temperature;humidity
18753;DHT22;9505;50.882;5.350;2023-09-30T00:01:14;10.30;99.90
18753;DHT22;9505;50.882;5.350;2023-09-30T00:03:40;10.30;99.90
18753;DHT22;9505;50.882;5.350;2023-09-30T00:06:06;10.30;99.90
18753;DHT22;9505;50.882;5.350;2023-09-30T00:08:32;10.30;99.90
18753;DHT22;9505;50.882;5.350;2023-09-30T00:10:57;10.30;99.90
18753;DHT22;9505;50.882;5.350;2023-09-30T00:13:23;10.30;99.90
18753;DHT22;9505;50.882;5.350;2023-09-30T00:15:49;10.40;99.90
18753;DHT22;9505;50.882;5.350;2023-09-30T00:18:15;10.40;99.90
18753;DHT22;9505;50.882;5.350;2023-09-30T00:20:40;10.40;99.90
18753;DHT22;9505;50.882;5.350;2023-09-30T00:23:06;10.40;99.90
18753;DHT22;9505;50.882;5.350;2023-09-30T00:25:33;10.40;99.90
18753;DHT22;9505;50.882;5.350;2023-09-30T00:27:58;10.40;99.90
18753;DHT22;9505;50.882;5.350;2023-09-30T00:30:24;10.50;99.90
18753;DHT22;9505;50.882;5.350;2023-09-30T00:32:50;10.40;99.90
18753;DHT22;9505;50.882;5.350;2023-09-30T00:35:15;10.40;99.90
18753;DHT22;9505;50.882;5.350;2023-09-30T00:37:42;10.50;99.90
18753;DHT22;9505;50.882;5.350;2023-09-30T00:40:08;10.50;99.90
18753;DHT22;9505;50.882;5.350;2023-09-30T00:42:40;10.50;99.90
18753;DHT22;9505;50.882;5.350;2023-09-30T00:45:06;10.50;99.90
18753;DHT22;9505;50.882;5.350;2023-09-30T00:47:34;10.50;99.90
18753;DHT22;9505;50.882;5.350;2023-09-30T00:50:00;10.50;99.90
18753;DHT22;9505;50.882;5.350;2023-09-30T00:52:27;10.50;99.90
18753;DHT22;9505;50.882;5.350;2023-09-30T00:54:53;10.40;99.90
18753;DHT22;9505;50.882;5.350;2023-09-30T00:57:20;10.40;99.90
18753;DHT22;9505;50.882;5.350;2023-09-30T00:59:47;10.40;99.90
18753;DHT22;9505;50.882;5.350;2023-09-30T01:02:13;10.40;99.90
18753;DHT22;9505;50.882;5.350;2023-09-30T01:04:40;10.40;99.90
18753;DHT22;9505;50.882;5.350;2023-09-30T01:07:06;10.40;99.90
18753;DHT22;9505;50.882;5.350;2023-09-30T01:09:32;10.50;99.90
18753;DHT22;9505;50.882;5.350;2023-09-30T01:11:59;10.50;99.90
18753;DHT22;9505;50.882;5.350;2023-09-30T01:14:29;10.50;99.90
18753;DHT22;9505;50.882;5.350;2023-09-30T01:16:56;10.50;99.90
18753;DHT22;9505;50.882;5.350;2023-09-30T01:19:22;10.50;99.90
18753;DHT22;9505;50.882;5.350;2023-09-30T01:21:52;10.50;99.90
18753;DHT22;9505;50.882;5.350;2023-09-30T01:24:20;10.50;99.90
18753;DHT22;9505;50.882;5.350;2023-09-30T01:26:45;10.60;99.90
18753;DHT22;9505;50.882;5.350;2023-09-30T01:29:11;10.60;99.90
18753;DHT22;9505;50.882;5.350;2023-09-30T01:31:37;10.60;99.90
18753;DHT22;9505;50.882;5.350;2023-09-30T01:34:04;10.60;99.90
18753;DHT22;9505;50.882;5.350;2023-09-30T01:36:29;10.50;99.90
18753;DHT22;9505;50.882;5.350;2023-09-30T01:38:55;10.50;99.90
18753;DHT22;9505;50.882;5.350;2023-09-30T01:41:21;10.50;99.90
18753;DHT22;9505;50.882;5.350;2023-09-30T01:43:46;10.50;99.90
18753;DHT22;9505;50.882;5.350;2023-09-30T01:46:12;10.50;99.90
18753;DHT22;9505;50.882;5.350;2023-09-30T01:48:38;10.50;99.90
18753;DHT22;9505;50.882;5.350;2023-09-30T01:51:04;10.50;99.90
18753;DHT22;9505;50.882;5.350;2023-09-30T01:53:29;10.40;99.90
18753;DHT22;9505;50.882;5.350;2023-09-30T01:55:55;10.40;99.90
18753;DHT22;9505;50.882;5.350;2023-09-30T01:58:21;10.40;99.90
18753;DHT22;9505;50.882;5.350;2023-09-30T02:00:46;10.40;99.90
18753;DHT22;9505;50.882;5.350;2023-09-30T02:03:12;10.40;99.90
18753;DHT22;9505;50.882;5.350;2023-09-30T02:05:41;10.40;99.90
18753;DHT22;9505;50.882;5.350;2023-09-30T02:08:06;10.30;99.90
18753;DHT22;9505;50.882;5.350;2023-09-30T02:10:33;10.30;99.90
18753;DHT22;9505;50.882;5.350;2023-09-30T02:12:59;10.30;99.90
18753;DHT22;9505;50.882;5.350;2023-09-30T02:15:25;10.20;99.90
18753;DHT22;9505;50.882;5.350;2023-09-30T02:17:51;10.20;99.90
18753;DHT22;9505;50.882;5.350;2023-09-30T02:20:17;10.10;99.90
18753;DHT22;9505;50.882;5.350;2023-09-30T02:22:45;10.10;99.90
18753;DHT22;9505;50.882;5.350;2023-09-30T02:25:12;10.10;99.90
18753;DHT22;9505;50.882;5.350;2023-09-30T02:27:39;10.10;99.90
18753;DHT22;9505;50.882;5.350;2023-09-30T02:30:08;10.00;99.90
18753;DHT22;9505;50.882;5.350;2023-09-30T02:32:33;10.00;99.90
18753;DHT22;9505;50.882;5.350;2023-09-30T02:34:59;10.00;99.90
18753;DHT22;9505;50.882;5.350;2023-09-30T02:37:24;10.00;99.90
18753;DHT22;9505;50.882;5.350;2023-09-30T02:39:51;9.90;99.90
18753;DHT22;9505;50.882;5.350;2023-09-30T02:42:16;9.90;99.90
18753;DHT22;9505;50.882;5.350;2023-09-30T02:44:42;9.90;99.90
18753;DHT22;9505;50.882;5.350;2023-09-30T02:47:08;9.80;99.90
18753;DHT22;9505;50.882;5.350;2023-09-30T02:49:34;9.80;99.90
18753;DHT22;9505;50.882;5.350;2023-09-30T02:52:00;9.80;99.90
18753;DHT22;9505;50.882;5.350;2023-09-30T02:54:26;9.70;99.90
18753;DHT22;9505;50.882;5.350;2023-09-30T02:56:52;9.70;99.90
18753;DHT22;9505;50.882;5.350;2023-09-30T02:59:20;9.70;99.90
18753;DHT22;9505;50.882;5.350;2023-09-30T03:01:47;9.60;99.90
18753;DHT22;9505;50.882;5.350;2023-09-30T03:04:13;9.60;99.90
18753;DHT22;9505;50.882;5.350;2023-09-30T03:06:39;9.60;99.90
18753;DHT22;9505;50.882;5.350;2023-09-30T03:09:05;9.70;99.90
18753;DHT22;9505;50.882;5.350;2023-09-30T03:11:31;9.70;99.90
18753;DHT22;9505;50.882;5.350;2023-09-30T03:13:57;9.70;99.90
18753;DHT22;9505;50.882;5.350;2023-09-30T03:16:24;9.80;99.90
18753;DHT22;9505;50.882;5.350;2023-09-30T03:18:50;9.80;99.90
18753;DHT22;9505;50.882;5.350;2023-09-30T03:21:16;9.80;99.90
18753;DHT22;9505;50.882;5.350;2023-09-30T03:23:43;9.90;99.90
18753;DHT22;9505;50.882;5.350;2023-09-30T03:26:09;9.90;99.90
18753;DHT22;9505;50.882;5.350;2023-09-30T03:28:38;9.90;99.90
18753;DHT22;9505;50.882;5.350;2023-09-30T03:31:04;9.90;99.90
18753;DHT22;9505;50.882;5.350;2023-09-30T03:33:34;9.90;99.90
18753;DHT22;9505;50.882;5.350;2023-09-30T03:36:00;9.90;99.90
18753;DHT22;9505;50.882;5.350;2023-09-30T03:38:26;9.90;99.90
18753;DHT22;9505;50.882;5.350;2023-09-30T03:40:52;9.90;99.90
18753;DHT22;9505;50.882;5.350;2023-09-30T03:43:23;9.90;99.90
18753;DHT22;9505;50.882;5.350;2023-09-30T03:45:48;9.90;99.90
18753;DHT22;9505;50.882;5.350;2023-09-30T03:48:15;9.90;99.90
18753;DHT22;9505;50.882;5.350;2023-09-30T03:50:41;9.80;99.90
18753;DHT22;9505;50.882;5.350;2023-09-30T03:53:06;9.80;99.90
18753;DHT22;9505;50.882;5.350;2023-09-30T03:55:35;9.80;99.90
18753;DHT22;9505;50.882;5.350;2023-09-30T03:58:02;9.70;99.90
18753;DHT22;9505;50.882;5.350;2023-09-30T04:00:29;9.70;99.90
18753;DHT22;9505;50.882;5.350;2023-09-30T04:02:55;9.70;99.90
18753;DHT22;9505;50.882;5.350;2023-09-30T04:05:24;9.70;99.90
18753;DHT22;9505;50.882;5.350;2023-09-30T04:07:59;9.70;99.90
18753;DHT22;9505;50.882;5.350;2023-09-30T04:10:25;9.70;99.90
18753;DHT22;9505;50.882;5.350;2023-09-30T04:12:51;9.60;99.90
18753;DHT22;9505;50.882;5.350;2023-09-30T04:15:20;9.60;99.90
18753;DHT22;9505;50.882;5.350;2023-09-30T04:17:45;9.50;99.90
18753;DHT22;9505;50.882;5.350;2023-09-30T04:20:11;9.60;99.90
18753;DHT22;9505;50.882;5.350;2023-09-30T04:22:41;9.50;99.90
18753;DHT22;9505;50.882;5.350;2023-09-30T04:25:11;9.50;99.90
18753;DHT22;9505;50.882;5.350;2023-09-30T04:27:37;9.50;99.90
18753;DHT22;9505;50.882;5.350;2023-09-30T04:30:03;9.50;99.90
18753;DHT22;9505;50.882;5.350;2023-09-30T04:32:37;9.50;99.90
18753;DHT22;9505;50.882;5.350;2023-09-30T04:35:04;9.50;99.90
18753;DHT22;9505;50.882;5.350;2023-09-30T04:37:30;9.40;99.90
18753;DHT22;9505;50.882;5.350;2023-09-30T04:39:56;9.40;99.90
18753;DHT22;9505;50.882;5.350;2023-09-30T04:42:23;9.30;99.90
18753;DHT22;9505;50.882;5.350;2023-09-30T04:44:51;9.30;99.90
18753;DHT22;9505;50.882;5.350;2023-09-30T04:47:16;9.30;99.90
18753;DHT22;9505;50.882;5.350;2023-09-30T04:49:44;9.30;99.90
18753;DHT22;9505;50.882;5.350;2023-09-30T04:52:10;9.30;99.90
18753;DHT22;9505;50.882;5.350;2023-09-30T04:54:35;9.30;99.90
18753;DHT22;9505;50.882;5.350;2023-09-30T04:57:01;9.20;99.90
18753;DHT22;9505;50.882;5.350;2023-09-30T04:59:28;9.20;99.90
18753;DHT22;9505;50.882;5.350;2023-09-30T05:01:55;9.20;99.90
18753;DHT22;9505;50.882;5.350;2023-09-30T05:04:21;9.10;99.90
18753;DHT22;9505;50.882;5.350;2023-09-30T05:06:49;9.10;99.90
18753;DHT22;9505;50.882;5.350;2023-09-30T05:09:15;9.10;99.90
18753;DHT22;9505;50.882;5.350;2023-09-30T05:11:40;9.10;99.90
18753;DHT22;9505;50.882;5.350;2023-09-30T05:14:06;9.10;99.90
18753;DHT22;9505;50.882;5.350;2023-09-30T05:16:32;9.10;99.90
18753;DHT22;9505;50.882;5.350;2023-09-30T05:18:57;9.00;99.90
18753;DHT22;9505;50.882;5.350;2023-09-30T05:21:23;9.00;99.90
18753;DHT22;9505;50.882;5.350;2023-09-30T05:23:49;9.10;99.90
18753;DHT22;9505;50.882;5.350;2023-09-30T05:26:15;9.10;99.90
18753;DHT22;9505;50.882;5.350;2023-09-30T05:28:42;9.00;99.90
18753;DHT22;9505;50.882;5.350;2023-09-30T05:31:08;8.90;99.90
18753;DHT22;9505;50.882;5.350;2023-09-30T05:33:33;8.90;99.90
18753;DHT22;9505;50.882;5.350;2023-09-30T05:35:59;8.90;99.90
18753;DHT22;9505;50.882;5.350;2023-09-30T05:38:28;8.90;99.90
18753;DHT22;9505;50.882;5.350;2023-09-30T05:40:54;8.80;99.90
18753;DHT22;9505;50.882;5.350;2023-09-30T05:43:20;8.80;99.90
18753;DHT22;9505;50.882;5.350;2023-09-30T05:45:47;8.90;99.90
18753;DHT22;9505;50.882;5.350;2023-09-30T05:48:23;8.80;99.90
18753;DHT22;9505;50.882;5.350;2023-09-30T05:50:48;8.90;99.90
18753;DHT22;9505;50.882;5.350;2023-09-30T05:53:14;8.90;99.90
18753;DHT22;9505;50.882;5.350;2023-09-30T05:55:41;8.90;99.90
18753;DHT22;9505;50.882;5.350;2023-09-30T05:58:13;8.90;99.90
18753;DHT22;9505;50.882;5.350;2023-09-30T06:00:40;9.00;99.90
18753;DHT22;9505;50.882;5.350;2023-09-30T06:03:07;9.00;99.90
18753;DHT22;9505;50.882;5.350;2023-09-30T06:05:33;9.10;99.90
18753;DHT22;9505;50.882;5.350;2023-09-30T06:08:01;9.20;99.90
18753;DHT22;9505;50.882;5.350;2023-09-30T06:10:28;9.30;99.90
18753;DHT22;9505;50.882;5.350;2023-09-30T06:12:56;9.40;99.90
18753;DHT22;9505;50.882;5.350;2023-09-30T06:15:23;9.50;99.90
18753;DHT22;9505;50.882;5.350;2023-09-30T06:17:51;9.60;99.90
18753;DHT22;9505;50.882;5.350;2023-09-30T06:20:18;9.70;99.90
18753;DHT22;9505;50.882;5.350;2023-09-30T06:22:44;9.80;99.90
18753;DHT22;9505;50.882;5.350;2023-09-30T06:25:17;9.90;99.90
18753;DHT22;9505;50.882;5.350;2023-09-30T06:27:44;10.00;99.90
18753;DHT22;9505;50.882;5.350;2023-09-30T06:30:10;10.10;99.90
18753;DHT22;9505;50.882;5.350;2023-09-30T06:32:36;10.10;99.90
18753;DHT22;9505;50.882;5.350;2023-09-30T06:35:05;10.20;99.90
18753;DHT22;9505;50.882;5.350;2023-09-30T06:37:32;10.40;99.90
18753;DHT22;9505;50.882;5.350;2023-09-30T06:39:58;10.50;99.90
18753;DHT22;9505;50.882;5.350;2023-09-30T06:42:24;10.70;99.90
18753;DHT22;9505;50.882;5.350;2023-09-30T06:44:50;10.90;99.90
18753;DHT22;9505;50.882;5.350;2023-09-30T06:47:18;11.10;99.90
18753;DHT22;9505;50.882;5.350;2023-09-30T06:49:44;11.30;99.90
18753;DHT22;9505;50.882;5.350;2023-09-30T06:52:10;11.40;99.90
18753;DHT22;9505;50.882;5.350;2023-09-30T06:54:36;11.50;99.90
18753;DHT22;9505;50.882;5.350;2023-09-30T06:57:02;11.70;99.90
18753;DHT22;9505;50.882;5.350;2023-09-30T06:59:28;11.80;99.90
18753;DHT22;9505;50.882;5.350;2023-09-30T07:01:53;12.00;99.90
18753;DHT22;9505;50.882;5.350;2023-09-30T07:04:20;12.20;99.90
18753;DHT22;9505;50.882;5.350;2023-09-30T07:06:47;12.40;99.90
18753;DHT22;9505;50.882;5.350;2023-09-30T07:09:12;12.50;99.90
18753;DHT22;9505;50.882;5.350;2023-09-30T07:11:38;12.60;99.90
18753;DHT22;9505;50.882;5.350;2023-09-30T07:14:04;12.80;99.90
18753;DHT22;9505;50.882;5.350;2023-09-30T07:16:30;12.90;99.90
18753;DHT22;9505;50.882;5.350;2023-09-30T07:18:55;13.00;99.90
18753;DHT22;9505;50.882;5.350;2023-09-30T07:21:21;13.00;99.90
18753;DHT22;9505;50.882;5.350;2023-09-30T07:23:47;13.10;99.90
18753;DHT22;9505;50.882;5.350;2023-09-30T07:26:13;13.20;99.90
18753;DHT22;9505;50.882;5.350;2023-09-30T07:28:40;13.10;99.90
18753;DHT22;9505;50.882;5.350;2023-09-30T07:31:06;13.10;99.90
18753;DHT22;9505;50.882;5.350;2023-09-30T07:33:32;13.20;99.90
18753;DHT22;9505;50.882;5.350;2023-09-30T07:35:57;13.20;99.90
18753;DHT22;9505;50.882;5.350;2023-09-30T07:38:23;13.40;99.90
18753;DHT22;9505;50.882;5.350;2023-09-30T07:40:49;13.40;99.90
18753;DHT22;9505;50.882;5.350;2023-09-30T07:43:15;13.50;99.90
18753;DHT22;9505;50.882;5.350;2023-09-30T07:45:40;13.40;99.90
18753;DHT22;9505;50.882;5.350;2023-09-30T07:48:09;13.40;99.90
18753;DHT22;9505;50.882;5.350;2023-09-30T07:50:35;13.40;99.90
18753;DHT22;9505;50.882;5.350;2023-09-30T07:53:01;13.50;99.90
18753;DHT22;9505;50.882;5.350;2023-09-30T07:55:27;13.70;99.90
18753;DHT22;9505;50.882;5.350;2023-09-30T07:57:52;14.00;99.90
18753;DHT22;9505;50.882;5.350;2023-09-30T08:00:18;14.10;99.90
18753;DHT22;9505;50.882;5.350;2023-09-30T08:02:46;14.20;99.90
18753;DHT22;9505;50.882;5.350;2023-09-30T08:05:12;14.30;99.90
18753;DHT22;9505;50.882;5.350;2023-09-30T08:07:38;14.40;99.90
18753;DHT22;9505;50.882;5.350;2023-09-30T08:10:04;14.50;99.90
18753;DHT22;9505;50.882;5.350;2023-09-30T08:12:30;14.60;99.90
18753;DHT22;9505;50.882;5.350;2023-09-30T08:14:56;14.60;99.90
18753;DHT22;9505;50.882;5.350;2023-09-30T08:17:21;14.70;99.90
18753;DHT22;9505;50.882;5.350;2023-09-30T08:19:47;14.80;99.90
18753;DHT22;9505;50.882;5.350;2023-09-30T08:22:16;15.00;99.90
18753;DHT22;9505;50.882;5.350;2023-09-30T08:24:42;15.00;99.90
18753;DHT22;9505;50.882;5.350;2023-09-30T08:27:08;15.00;99.90
18753;DHT22;9505;50.882;5.350;2023-09-30T08:29:35;15.10;99.90
18753;DHT22;9505;50.882;5.350;2023-09-30T08:32:03;15.20;99.90
18753;DHT22;9505;50.882;5.350;2023-09-30T08:34:30;15.10;99.90
18753;DHT22;9505;50.882;5.350;2023-09-30T08:36:55;15.00;99.90
18753;DHT22;9505;50.882;5.350;2023-09-30T08:39:22;15.00;99.90
18753;DHT22;9505;50.882;5.350;2023-09-30T08:41:49;15.10;99.90
18753;DHT22;9505;50.882;5.350;2023-09-30T08:44:15;15.40;99.90
18753;DHT22;9505;50.882;5.350;2023-09-30T08:46:41;15.70;99.90
18753;DHT22;9505;50.882;5.350;2023-09-30T08:49:07;16.00;99.90
18753;DHT22;9505;50.882;5.350;2023-09-30T08:51:34;16.10;99.90
18753;DHT22;9505;50.882;5.350;2023-09-30T08:54:01;16.00;99.90
18753;DHT22;9505;50.882;5.350;2023-09-30T08:56:31;16.10;99.90
18753;DHT22;9505;50.882;5.350;2023-09-30T08:59:01;16.20;99.90
18753;DHT22;9505;50.882;5.350;2023-09-30T09:01:28;16.50;99.90
18753;DHT22;9505;50.882;5.350;2023-09-30T09:03:54;16.70;99.90
18753;DHT22;9505;50.882;5.350;2023-09-30T09:06:21;16.80;99.90
18753;DHT22;9505;50.882;5.350;2023-09-30T09:08:47;16.80;99.90
18753;DHT22;9505;50.882;5.350;2023-09-30T09:11:14;16.80;99.90
18753;DHT22;9505;50.882;5.350;2023-09-30T09:13:53;16.60;99.90
18753;DHT22;9505;50.882;5.350;2023-09-30T09:16:22;16.80;99.90
18753;DHT22;9505;50.882;5.350;2023-09-30T09:18:49;17.10;99.90
18753;DHT22;9505;50.882;5.350;2023-09-30T09:21:22;17.30;99.90
18753;DHT22;9505;50.882;5.350;2023-09-30T09:23:50;17.40;99.90
18753;DHT22;9505;50.882;5.350;2023-09-30T09:26:29;17.30;99.90
18753;DHT22;9505;50.882;5.350;2023-09-30T09:29:00;17.40;99.90
18753;DHT22;9505;50.882;5.350;2023-09-30T09:31:33;17.70;99.90
18753;DHT22;9505;50.882;5.350;2023-09-30T09:34:13;18.20;99.90
18753;DHT22;9505;50.882;5.350;2023-09-30T09:36:42;18.40;99.90
18753;DHT22;9505;50.882;5.350;2023-09-30T09:39:09;18.50;99.90
18753;DHT22;9505;50.882;5.350;2023-09-30T09:41:54;18.60;99.90
18753;DHT22;9505;50.882;5.350;2023-09-30T09:44:22;18.50;99.90
18753;DHT22;9505;50.882;5.350;2023-09-30T09:46:49;18.90;99.90
18753;DHT22;9505;50.882;5.350;2023-09-30T09:49:19;19.40;99.90
18753;DHT22;9505;50.882;5.350;2023-09-30T09:51:46;19.30;99.90
18753;DHT22;9505;50.882;5.350;2023-09-30T09:54:12;18.90;99.90
18753;DHT22;9505;50.882;5.350;2023-09-30T09:56:39;18.80;99.90
18753;DHT22;9505;50.882;5.350;2023-09-30T09:59:05;18.80;99.90
18753;DHT22;9505;50.882;5.350;2023-09-30T10:01:33;19.00;99.90
18753;DHT22;9505;50.882;5.350;2023-09-30T10:04:01;18.90;99.90
18753;DHT22;9505;50.882;5.350;2023-09-30T10:06:28;18.80;99.90
18753;DHT22;9505;50.882;5.350;2023-09-30T10:08:54;18.70;99.90
18753;DHT22;9505;50.882;5.350;2023-09-30T10:11:21;18.40;99.90
18753;DHT22;9505;50.882;5.350;2023-09-30T10:13:54;18.20;99.90
18753;DHT22;9505;50.882;5.350;2023-09-30T10:19:22;19.50;99.90
18753;DHT22;9505;50.882;5.350;2023-09-30T10:24:46;19.80;99.90
18753;DHT22;9505;50.882;5.350;2023-09-30T10:30:16;19.70;99.90
18753;DHT22;9505;50.882;5.350;2023-09-30T10:35:20;20.30;99.90
18753;DHT22;9505;50.882;5.350;2023-09-30T10:37:46;20.20;99.90
18753;DHT22;9505;50.882;5.350;2023-09-30T10:40:38;20.40;99.90
18753;DHT22;9505;50.882;5.350;2023-09-30T10:43:04;20.40;99.90
18753;DHT22;9505;50.882;5.350;2023-09-30T10:45:43;20.40;99.90
18753;DHT22;9505;50.882;5.350;2023-09-30T10:50:57;20.20;99.90
18753;DHT22;9505;50.882;5.350;2023-09-30T10:53:27;20.20;99.90
18753;DHT22;9505;50.882;5.350;2023-09-30T10:55:58;20.30;99.90
18753;DHT22;9505;50.882;5.350;2023-09-30T11:01:13;20.20;99.90
18753;DHT22;9505;50.882;5.350;2023-09-30T11:03:40;19.60;99.90
18753;DHT22;9505;50.882;5.350;2023-09-30T11:06:06;19.40;99.90
18753;DHT22;9505;50.882;5.350;2023-09-30T11:08:32;19.30;99.90
18753;DHT22;9505;50.882;5.350;2023-09-30T11:10:58;18.90;99.90
18753;DHT22;9505;50.882;5.350;2023-09-30T11:13:33;19.00;99.90
18753;DHT22;9505;50.882;5.350;2023-09-30T11:16:03;19.30;99.90
18753;DHT22;9505;50.882;5.350;2023-09-30T11:18:34;19.60;99.90
18753;DHT22;9505;50.882;5.350;2023-09-30T11:21:11;19.60;99.90
18753;DHT22;9505;50.882;5.350;2023-09-30T11:23:38;19.60;99.90
18753;DHT22;9505;50.882;5.350;2023-09-30T11:26:06;19.80;99.90
18753;DHT22;9505;50.882;5.350;2023-09-30T11:28:42;19.30;99.90
18753;DHT22;9505;50.882;5.350;2023-09-30T11:31:12;19.30;99.90
18753;DHT22;9505;50.882;5.350;2023-09-30T11:33:57;20.00;99.90
18753;DHT22;9505;50.882;5.350;2023-09-30T11:36:29;20.60;99.90
18753;DHT22;9505;50.882;5.350;2023-09-30T11:38:55;20.60;99.90
18753;DHT22;9505;50.882;5.350;2023-09-30T11:41:21;20.40;99.90
18753;DHT22;9505;50.882;5.350;2023-09-30T11:44:05;20.50;99.90
18753;DHT22;9505;50.882;5.350;2023-09-30T11:47:00;20.80;99.90
18753;DHT22;9505;50.882;5.350;2023-09-30T11:49:36;20.40;99.90
18753;DHT22;9505;50.882;5.350;2023-09-30T11:52:11;20.90;99.90
18753;DHT22;9505;50.882;5.350;2023-09-30T11:54:42;20.40;99.90
18753;DHT22;9505;50.882;5.350;2023-09-30T11:57:10;20.10;99.90
18753;DHT22;9505;50.882;5.350;2023-09-30T11:59:37;20.50;99.90
18753;DHT22;9505;50.882;5.350;2023-09-30T12:02:03;21.00;99.90
18753;DHT22;9505;50.882;5.350;2023-09-30T12:04:31;21.20;99.90
18753;DHT22;9505;50.882;5.350;2023-09-30T12:06:57;21.60;99.90
18753;DHT22;9505;50.882;5.350;2023-09-30T12:09:23;21.60;99.90
18753;DHT22;9505;50.882;5.350;2023-09-30T12:11:51;21.70;99.90
18753;DHT22;9505;50.882;5.350;2023-09-30T12:14:17;21.70;99.90
18753;DHT22;9505;50.882;5.350;2023-09-30T12:16:43;21.30;99.90
18753;DHT22;9505;50.882;5.350;2023-09-30T12:19:19;20.90;99.90
18753;DHT22;9505;50.882;5.350;2023-09-30T12:21:46;20.90;99.90
18753;DHT22;9505;50.882;5.350;2023-09-30T12:24:18;20.40;99.90
18753;DHT22;9505;50.882;5.350;2023-09-30T12:26:50;20.40;99.90
18753;DHT22;9505;50.882;5.350;2023-09-30T12:29:18;20.20;99.90
18753;DHT22;9505;50.882;5.350;2023-09-30T12:31:47;20.40;99.90
18753;DHT22;9505;50.882;5.350;2023-09-30T12:34:13;20.30;99.90
18753;DHT22;9505;50.882;5.350;2023-09-30T12:36:40;20.80;99.90
18753;DHT22;9505;50.882;5.350;2023-09-30T12:39:06;21.40;99.90
18753;DHT22;9505;50.882;5.350;2023-09-30T12:41:42;21.60;99.90
18753;DHT22;9505;50.882;5.350;2023-09-30T12:44:09;22.10;99.90
18753;DHT22;9505;50.882;5.350;2023-09-30T12:46:35;22.40;99.90
18753;DHT22;9505;50.882;5.350;2023-09-30T12:49:06;22.70;99.90
18753;DHT22;9505;50.882;5.350;2023-09-30T12:51:32;22.90;99.90
18753;DHT22;9505;50.882;5.350;2023-09-30T12:53:58;22.80;99.90
18753;DHT22;9505;50.882;5.350;2023-09-30T12:56:24;22.20;99.90
18753;DHT22;9505;50.882;5.350;2023-09-30T12:58:50;22.30;99.90
18753;DHT22;9505;50.882;5.350;2023-09-30T13:01:16;22.20;99.90
18753;DHT22;9505;50.882;5.350;2023-09-30T13:03:44;22.30;99.90
18753;DHT22;9505;50.882;5.350;2023-09-30T13:06:10;22.00;99.90
18753;DHT22;9505;50.882;5.350;2023-09-30T13:08:35;21.30;99.90
18753;DHT22;9505;50.882;5.350;2023-09-30T13:11:02;21.30;99.90
18753;DHT22;9505;50.882;5.350;2023-09-30T13:13:32;21.70;99.90
18753;DHT22;9505;50.882;5.350;2023-09-30T13:16:02;21.60;99.90
18753;DHT22;9505;50.882;5.350;2023-09-30T13:18:31;21.70;99.90
18753;DHT22;9505;50.882;5.350;2023-09-30T13:20:57;21.80;99.90
18753;DHT22;9505;50.882;5.350;2023-09-30T13:23:22;21.70;99.90
18753;DHT22;9505;50.882;5.350;2023-09-30T13:25:48;21.80;99.90
18753;DHT22;9505;50.882;5.350;2023-09-30T13:28:14;21.80;99.90
18753;DHT22;9505;50.882;5.350;2023-09-30T13:30:40;22.00;99.90
18753;DHT22;9505;50.882;5.350;2023-09-30T13:33:06;22.00;99.90
18753;DHT22;9505;50.882;5.350;2023-09-30T13:35:32;22.00;99.90
18753;DHT22;9505;50.882;5.350;2023-09-30T13:37:58;22.20;99.90
18753;DHT22;9505;50.882;5.350;2023-09-30T13:40:23;22.00;99.90
18753;DHT22;9505;50.882;5.350;2023-09-30T13:42:49;22.20;99.90
18753;DHT22;9505;50.882;5.350;2023-09-30T13:45:15;22.10;99.90
18753;DHT22;9505;50.882;5.350;2023-09-30T13:47:43;22.10;99.90
18753;DHT22;9505;50.882;5.350;2023-09-30T13:50:09;22.10;99.90
18753;DHT22;9505;50.882;5.350;2023-09-30T13:52:35;22.20;99.90
18753;DHT22;9505;50.882;5.350;2023-09-30T13:55:01;22.30;99.90
18753;DHT22;9505;50.882;5.350;2023-09-30T13:57:27;22.40;99.90
18753;DHT22;9505;50.882;5.350;2023-09-30T13:59:53;22.40;99.90
18753;DHT22;9505;50.882;5.350;2023-09-30T14:02:19;22.80;99.90
18753;DHT22;9505;50.882;5.350;2023-09-30T14:04:45;23.20;99.90
18753;DHT22;9505;50.882;5.350;2023-09-30T14:07:10;23.30;99.90
18753;DHT22;9505;50.882;5.350;2023-09-30T14:09:36;23.30;99.90
18753;DHT22;9505;50.882;5.350;2023-09-30T14:12:03;23.40;99.90
18753;DHT22;9505;50.882;5.350;2023-09-30T14:14:31;22.70;99.90
18753;DHT22;9505;50.882;5.350;2023-09-30T14:16:58;22.50;99.90
18753;DHT22;9505;50.882;5.350;2023-09-30T14:19:23;22.80;99.90
18753;DHT22;9505;50.882;5.350;2023-09-30T14:21:49;23.20;99.90
18753;DHT22;9505;50.882;5.350;2023-09-30T14:24:15;23.30;99.90
18753;DHT22;9505;50.882;5.350;2023-09-30T14:26:41;23.40;99.90
18753;DHT22;9505;50.882;5.350;2023-09-30T14:29:06;23.10;99.90
18753;DHT22;9505;50.882;5.350;2023-09-30T14:31:32;22.70;99.90
18753;DHT22;9505;50.882;5.350;2023-09-30T14:33:57;22.80;99.90
18753;DHT22;9505;50.882;5.350;2023-09-30T14:36:23;23.10;99.90
18753;DHT22;9505;50.882;5.350;2023-09-30T14:38:49;23.40;99.90
18753;DHT22;9505;50.882;5.350;2023-09-30T14:41:15;23.40;99.90
18753;DHT22;9505;50.882;5.350;2023-09-30T14:43:41;23.30;99.90
18753;DHT22;9505;50.882;5.350;2023-09-30T14:46:07;23.60;99.90
18753;DHT22;9505;50.882;5.350;2023-09-30T14:48:33;24.20;99.90
18753;DHT22;9505;50.882;5.350;2023-09-30T14:50:59;24.50;99.90
18753;DHT22;9505;50.882;5.350;2023-09-30T14:53:25;24.70;99.90
18753;DHT22;9505;50.882;5.350;2023-09-30T14:55:51;24.40;99.90
18753;DHT22;9505;50.882;5.350;2023-09-30T14:58:17;24.70;99.90
18753;DHT22;9505;50.882;5.350;2023-09-30T15:00:43;24.90;99.90
18753;DHT22;9505;50.882;5.350;2023-09-30T15:03:08;24.30;99.90
18753;DHT22;9505;50.882;5.350;2023-09-30T15:05:34;24.20;99.90
18753;DHT22;9505;50.882;5.350;2023-09-30T15:08:01;24.20;99.90
18753;DHT22;9505;50.882;5.350;2023-09-30T15:10:29;24.40;99.90
18753;DHT22;9505;50.882;5.350;2023-09-30T15:12:55;24.90;99.90
18753;DHT22;9505;50.882;5.350;2023-09-30T15:15:23;24.70;99.90
18753;DHT22;9505;50.882;5.350;2023-09-30T15:17:50;24.20;99.90
18753;DHT22;9505;50.882;5.350;2023-09-30T15:20:17;24.00;99.90
18753;DHT22;9505;50.882;5.350;2023-09-30T15:22:43;24.00;99.90
18753;DHT22;9505;50.882;5.350;2023-09-30T15:25:09;24.20;99.90
18753;DHT22;9505;50.882;5.350;2023-09-30T15:27:34;24.30;99.90
18753;DHT22;9505;50.882;5.350;2023-09-30T15:30:01;24.40;99.90
18753;DHT22;9505;50.882;5.350;2023-09-30T15:32:28;24.40;99.90
18753;DHT22;9505;50.882;5.350;2023-09-30T15:34:54;23.70;99.90
18753;DHT22;9505;50.882;5.350;2023-09-30T15:37:19;23.90;99.90
18753;DHT22;9505;50.882;5.350;2023-09-30T15:39:45;24.00;99.90
18753;DHT22;9505;50.882;5.350;2023-09-30T15:42:12;24.00;99.90
18753;DHT22;9505;50.882;5.350;2023-09-30T15:44:38;23.90;99.90
18753;DHT22;9505;50.882;5.350;2023-09-30T15:47:08;23.60;99.90
18753;DHT22;9505;50.882;5.350;2023-09-30T15:49:35;23.40;99.90
18753;DHT22;9505;50.882;5.350;2023-09-30T15:52:02;23.30;99.90
18753;DHT22;9505;50.882;5.350;2023-09-30T15:54:27;23.00;99.90
18753;DHT22;9505;50.882;5.350;2023-09-30T15:56:53;22.80;99.90
18753;DHT22;9505;50.882;5.350;2023-09-30T15:59:19;22.70;99.90
18753;DHT22;9505;50.882;5.350;2023-09-30T16:01:44;22.60;99.90
18753;DHT22;9505;50.882;5.350;2023-09-30T16:04:10;22.20;99.90
18753;DHT22;9505;50.882;5.350;2023-09-30T16:06:39;21.90;99.90